sensor_id;sensor_type;location;lat;lon;timestamp;pressure;altitude;pressure_sealevel;temperature;humidity
79463;BME280;68931;47.286;18.756;2023-05-19T00:00:01;101294.28;;;12.95;93.04
79463;BME280;68931;47.286;18.756;2023-05-19T00:00:36;101292.50;;;12.96;92.89
79463;BME280;68931;47.286;18.756;2023-05-19T00:01:07;101297.63;;;12.99;92.94
79463;BME280;68931;47.286;18.756;2023-05-19T00:01:42;101296.69;;;13.00;92.99
79463;BME280;68931;47.286;18.756;2023-05-19T00:02:17;101299.25;;;13.01;92.94
79463;BME280;68931;47.286;18.756;2023-05-19T00:02:50;101298.41;;;13.01;93.09
79463;BME280;68931;47.286;18.756;2023-05-19T00:03:21;101301.03;;;13.01;92.89
79463;BME280;68931;47.286;18.756;2023-05-19T00:03:58;101301.97;;;13.00;92.70
79463;BME280;68931;47.286;18.756;2023-05-19T00:04:32;101296.84;;;12.97;92.95
79463;BME280;68931;47.286;18.756;2023-05-19T00:05:03;101293.03;;;13.02;93.14
79463;BME280;68931;47.286;18.756;2023-05-19T00:05:35;101289.88;;;12.96;92.99
79463;BME280;68931;47.286;18.756;2023-05-19T00:06:10;101302.63;;;13.03;92.81
79463;BME280;68931;47.286;18.756;2023-05-19T00:06:41;101301.88;;;13.01;92.86
79463;BME280;68931;47.286;18.756;2023-05-19T00:07:17;101301.03;;;13.01;93.39
79463;BME280;68931;47.286;18.756;2023-05-19T00:07:50;101306.19;;;13.02;93.14
79463;BME280;68931;47.286;18.756;2023-05-19T00:08:22;101288.94;;;12.97;93.02
79463;BME280;68931;47.286;18.756;2023-05-19T00:08:58;101295.66;;;13.02;92.87
79463;BME280;68931;47.286;18.756;2023-05-19T00:09:29;101297.28;;;13.05;93.05
79463;BME280;68931;47.286;18.756;2023-05-19T00:10:01;101293.22;;;12.99;92.79
79463;BME280;68931;47.286;18.756;2023-05-19T00:10:31;101303.41;;;13.05;92.54
79463;BME280;68931;47.286;18.756;2023-05-19T00:11:03;101294.81;;;13.02;92.66
79463;BME280;68931;47.286;18.756;2023-05-19T00:11:35;101293.72;;;13.06;92.81
79463;BME280;68931;47.286;18.756;2023-05-19T00:12:06;101298.22;;;13.04;92.94
79463;BME280;68931;47.286;18.756;2023-05-19T00:12:37;101300.06;;;13.02;92.98
79463;BME280;68931;47.286;18.756;2023-05-19T00:13:08;101301.88;;;13.01;92.76
79463;BME280;68931;47.286;18.756;2023-05-19T00:13:39;101297.63;;;12.99;92.90
79463;BME280;68931;47.286;18.756;2023-05-19T00:14:10;101300.34;;;12.97;92.70
79463;BME280;68931;47.286;18.756;2023-05-19T00:14:41;101273.13;;;12.81;92.70
79463;BME280;68931;47.286;18.756;2023-05-19T00:15:15;101293.53;;;12.93;92.43
79463;BME280;68931;47.286;18.756;2023-05-19T00:15:46;101297.63;;;12.99;92.50
79463;BME280;68931;47.286;18.756;2023-05-19T00:16:17;101302.72;;;13.02;92.64
79463;BME280;68931;47.286;18.756;2023-05-19T00:16:48;101302.72;;;13.02;92.84
79463;BME280;68931;47.286;18.756;2023-05-19T00:17:18;101299.34;;;13.00;92.99
79463;BME280;68931;47.286;18.756;2023-05-19T00:17:49;101300.00;;;13.03;92.56
79463;BME280;68931;47.286;18.756;2023-05-19T00:18:21;101302.56;;;13.05;92.43
79463;BME280;68931;47.286;18.756;2023-05-19T00:18:52;101299.16;;;13.03;92.96
79463;BME280;68931;47.286;18.756;2023-05-19T00:19:24;101302.63;;;13.03;92.63
79463;BME280;68931;47.286;18.756;2023-05-19T00:19:54;101288.94;;;12.97;92.88
79463;BME280;68931;47.286;18.756;2023-05-19T00:20:25;101292.16;;;13.02;92.92
79463;BME280;68931;47.286;18.756;2023-05-19T00:20:56;101289.72;;;12.99;92.74
79463;BME280;68931;47.286;18.756;2023-05-19T00:21:27;101291.44;;;13.00;92.94
79463;BME280;68931;47.286;18.756;2023-05-19T00:21:58;101298.41;;;13.01;92.92
79463;BME280;68931;47.286;18.756;2023-05-19T00:22:28;101298.41;;;13.01;92.82
79463;BME280;68931;47.286;18.756;2023-05-19T00:22:59;101299.16;;;13.03;92.87
79463;BME280;68931;47.286;18.756;2023-05-19T00:23:29;101301.03;;;13.01;92.92
79463;BME280;68931;47.286;18.756;2023-05-19T00:24:00;101302.72;;;13.02;92.94
79463;BME280;68931;47.286;18.756;2023-05-19T00:24:31;101300.94;;;13.02;93.08
79463;BME280;68931;47.286;18.756;2023-05-19T00:25:02;101295.84;;;12.99;92.56
79463;BME280;68931;47.286;18.756;2023-05-19T00:25:33;101300.06;;;13.02;92.69
79463;BME280;68931;47.286;18.756;2023-05-19T00:26:04;101300.94;;;13.02;92.64
79463;BME280;68931;47.286;18.756;2023-05-19T00:26:34;101301.88;;;13.01;92.96
79463;BME280;68931;47.286;18.756;2023-05-19T00:27:05;101299.34;;;13.00;92.67
79463;BME280;68931;47.286;18.756;2023-05-19T00:27:36;101287.25;;;12.96;93.03
79463;BME280;68931;47.286;18.756;2023-05-19T00:28:06;101300.00;;;13.03;92.88
79463;BME280;68931;47.286;18.756;2023-05-19T00:28:39;101302.56;;;13.05;92.64
79463;BME280;68931;47.286;18.756;2023-05-19T00:29:10;101306.13;;;13.04;92.60
79463;BME280;68931;47.286;18.756;2023-05-19T00:29:41;101299.16;;;13.03;92.97
79463;BME280;68931;47.286;18.756;2023-05-19T00:30:12;101305.19;;;13.05;92.68
79463;BME280;68931;47.286;18.756;2023-05-19T00:30:42;101301.69;;;13.04;93.17
79463;BME280;68931;47.286;18.756;2023-05-19T00:31:22;101305.09;;;13.06;92.54
79463;BME280;68931;47.286;18.756;2023-05-19T00:31:53;101306.03;;;13.05;93.13
79463;BME280;68931;47.286;18.756;2023-05-19T00:32:24;101303.47;;;13.04;92.98
79463;BME280;68931;47.286;18.756;2023-05-19T00:32:55;101301.63;;;13.06;92.90
79463;BME280;68931;47.286;18.756;2023-05-19T00:33:25;101297.44;;;13.02;92.81
79463;BME280;68931;47.286;18.756;2023-05-19T00:33:56;101288.09;;;12.96;92.98
79463;BME280;68931;47.286;18.756;2023-05-19T00:34:27;101300.06;;;13.02;93.12
79463;BME280;68931;47.286;18.756;2023-05-19T00:34:58;101295.22;;;12.94;93.08
79463;BME280;68931;47.286;18.756;2023-05-19T00:35:28;101304.75;;;12.97;92.93
79463;BME280;68931;47.286;18.756;2023-05-19T00:36:05;101289.88;;;12.96;92.90
79463;BME280;68931;47.286;18.756;2023-05-19T00:36:36;101289.72;;;12.99;92.99
79463;BME280;68931;47.286;18.756;2023-05-19T00:37:07;101297.44;;;13.02;93.03
79463;BME280;68931;47.286;18.756;2023-05-19T00:37:37;101291.66;;;12.95;93.06
79463;BME280;68931;47.286;18.756;2023-05-19T00:38:08;101297.13;;;12.92;92.96
79463;BME280;68931;47.286;18.756;2023-05-19T00:38:39;101290.16;;;12.91;92.88
79463;BME280;68931;47.286;18.756;2023-05-19T00:39:09;101289.97;;;12.94;93.34
79463;BME280;68931;47.286;18.756;2023-05-19T00:39:40;101300.19;;;13.00;92.93
79463;BME280;68931;47.286;18.756;2023-05-19T00:40:11;101306.31;;;13.01;93.21
79463;BME280;68931;47.286;18.756;2023-05-19T00:40:42;101290.72;;;12.96;92.80
79463;BME280;68931;47.286;18.756;2023-05-19T00:41:15;101297.78;;;12.96;93.28
79463;BME280;68931;47.286;18.756;2023-05-19T00:41:49;101295.34;;;12.93;93.23
79463;BME280;68931;47.286;18.756;2023-05-19T00:42:20;101298.78;;;12.93;92.99
79463;BME280;68931;47.286;18.756;2023-05-19T00:42:50;101274.16;;;12.78;92.83
79463;BME280;68931;47.286;18.756;2023-05-19T00:43:21;101303.41;;;12.90;93.24
79463;BME280;68931;47.286;18.756;2023-05-19T00:43:52;101298.28;;;12.87;93.51
79463;BME280;68931;47.286;18.756;2023-05-19T00:44:22;101302.53;;;12.89;93.38
79463;BME280;68931;47.286;18.756;2023-05-19T00:44:53;101305.25;;;12.88;92.85
79463;BME280;68931;47.286;18.756;2023-05-19T00:45:27;101296.56;;;12.86;92.21
79463;BME280;68931;47.286;18.756;2023-05-19T00:45:58;101294.78;;;12.86;92.01
79463;BME280;68931;47.286;18.756;2023-05-19T00:46:29;101295.72;;;12.85;91.02
79463;BME280;68931;47.286;18.756;2023-05-19T00:47:01;101298.28;;;12.87;91.61
79463;BME280;68931;47.286;18.756;2023-05-19T00:47:32;101298.22;;;12.88;91.03
79463;BME280;68931;47.286;18.756;2023-05-19T00:48:03;101293.00;;;12.87;90.35
79463;BME280;68931;47.286;18.756;2023-05-19T00:48:34;101299.06;;;12.89;90.46
79463;BME280;68931;47.286;18.756;2023-05-19T00:49:04;101295.84;;;12.84;88.73
79463;BME280;68931;47.286;18.756;2023-05-19T00:49:35;101293.94;;;12.86;88.44
79463;BME280;68931;47.286;18.756;2023-05-19T00:50:06;101293.19;;;12.84;88.90
79463;BME280;68931;47.286;18.756;2023-05-19T00:50:37;101293.00;;;12.87;88.89
79463;BME280;68931;47.286;18.756;2023-05-19T00:51:08;101293.34;;;12.80;88.69
79463;BME280;68931;47.286;18.756;2023-05-19T00:51:39;101285.88;;;12.73;87.36
79463;BME280;68931;47.286;18.756;2023-05-19T00:52:10;101297.41;;;12.70;85.34
79463;BME280;68931;47.286;18.756;2023-05-19T00:52:41;101292.91;;;12.72;85.12
79463;BME280;68931;47.286;18.756;2023-05-19T00:53:13;101290.28;;;12.72;85.75
79463;BME280;68931;47.286;18.756;2023-05-19T00:53:47;101289.94;;;12.78;86.29
79463;BME280;68931;47.286;18.756;2023-05-19T00:54:20;101288.72;;;12.68;85.01
79463;BME280;68931;47.286;18.756;2023-05-19T00:54:52;101293.69;;;12.74;85.54
79463;BME280;68931;47.286;18.756;2023-05-19T00:55:27;101282.63;;;12.68;86.72
79463;BME280;68931;47.286;18.756;2023-05-19T00:55:59;101285.34;;;12.66;86.41
79463;BME280;68931;47.286;18.756;2023-05-19T00:56:31;101289.66;;;12.67;84.87
79463;BME280;68931;47.286;18.756;2023-05-19T00:57:02;101288.22;;;12.62;84.69
79463;BME280;68931;47.286;18.756;2023-05-19T00:57:33;101280.41;;;12.60;84.70
79463;BME280;68931;47.286;18.756;2023-05-19T00:58:05;101297.91;;;12.61;84.79
79463;BME280;68931;47.286;18.756;2023-05-19T00:58:37;101300.44;;;12.63;84.28
79463;BME280;68931;47.286;18.756;2023-05-19T00:59:08;101286.84;;;12.55;84.66
79463;BME280;68931;47.286;18.756;2023-05-19T00:59:39;101297.31;;;12.56;84.33
79463;BME280;68931;47.286;18.756;2023-05-19T01:00:10;101300.78;;;12.57;83.49
79463;BME280;68931;47.286;18.756;2023-05-19T01:00:44;101293.75;;;12.57;84.67
79463;BME280;68931;47.286;18.756;2023-05-19T01:01:16;101301.72;;;12.56;85.01
79463;BME280;68931;47.286;18.756;2023-05-19T01:01:51;101300.25;;;12.50;85.63
79463;BME280;68931;47.286;18.756;2023-05-19T01:02:22;101293.44;;;12.46;85.29
79463;BME280;68931;47.286;18.756;2023-05-19T01:02:53;101300.34;;;12.49;84.67
79463;BME280;68931;47.286;18.756;2023-05-19T01:03:25;101291.22;;;12.38;84.73
79463;BME280;68931;47.286;18.756;2023-05-19T01:03:55;101297.16;;;12.42;84.82
79463;BME280;68931;47.286;18.756;2023-05-19T01:04:28;101289.44;;;12.39;85.04
79463;BME280;68931;47.286;18.756;2023-05-19T01:04:59;101303.28;;;12.42;84.78
79463;BME280;68931;47.286;18.756;2023-05-19T01:05:30;101306.94;;;12.40;84.71
79463;BME280;68931;47.286;18.756;2023-05-19T01:06:04;101301.69;;;12.40;84.56
79463;BME280;68931;47.286;18.756;2023-05-19T01:06:35;101305.13;;;12.40;84.76
79463;BME280;68931;47.286;18.756;2023-05-19T01:07:09;101300.97;;;12.36;84.95
79463;BME280;68931;47.286;18.756;2023-05-19T01:07:42;101295.94;;;12.32;84.09
79463;BME280;68931;47.286;18.756;2023-05-19T01:08:12;101310.66;;;12.36;84.31
79463;BME280;68931;47.286;18.756;2023-05-19T01:08:43;101308.00;;;12.36;84.19
79463;BME280;68931;47.286;18.756;2023-05-19T01:09:15;101296.13;;;12.29;83.98
79463;BME280;68931;47.286;18.756;2023-05-19T01:09:46;101309.72;;;12.37;84.15
79463;BME280;68931;47.286;18.756;2023-05-19T01:10:20;101308.00;;;12.36;84.31
79463;BME280;68931;47.286;18.756;2023-05-19T01:10:51;101306.47;;;12.32;84.92
79463;BME280;68931;47.286;18.756;2023-05-19T01:11:22;101304.84;;;12.29;84.54
79463;BME280;68931;47.286;18.756;2023-05-19T01:11:55;101304.06;;;12.27;84.04
79463;BME280;68931;47.286;18.756;2023-05-19T01:12:26;101298.97;;;12.24;84.37
79463;BME280;68931;47.286;18.756;2023-05-19T01:13:00;101307.78;;;12.23;84.72
79463;BME280;68931;47.286;18.756;2023-05-19T01:13:32;101313.81;;;12.25;84.91
79463;BME280;68931;47.286;18.756;2023-05-19T01:14:04;101310.25;;;12.26;84.65
79463;BME280;68931;47.286;18.756;2023-05-19T01:14:35;101305.00;;;12.26;84.34
79463;BME280;68931;47.286;18.756;2023-05-19T01:15:06;101278.72;;;12.09;84.73
79463;BME280;68931;47.286;18.756;2023-05-19T01:16:05;101312.03;;;12.26;85.32
79463;BME280;68931;47.286;18.756;2023-05-19T01:16:45;101301.00;;;12.19;84.64
79463;BME280;68931;47.286;18.756;2023-05-19T01:18:13;101308.63;;;12.24;85.14
79463;BME280;68931;47.286;18.756;2023-05-19T01:20:07;101306.09;;;12.22;85.26
79463;BME280;68931;47.286;18.756;2023-05-19T01:20:45;101297.25;;;12.23;85.69
79463;BME280;68931;47.286;18.756;2023-05-19T01:22:39;101305.16;;;12.23;86.41
79463;BME280;68931;47.286;18.756;2023-05-19T01:23:33;101292.47;;;12.14;85.46
79463;BME280;68931;47.286;18.756;2023-05-19T01:27:02;101300.75;;;12.24;86.00
79463;BME280;68931;47.286;18.756;2023-05-19T01:29:38;101305.25;;;12.22;85.58
79463;BME280;68931;47.286;18.756;2023-05-19T01:31:08;101304.22;;;12.24;85.94
79463;BME280;68931;47.286;18.756;2023-05-19T01:31:42;101291.25;;;12.21;85.96
79463;BME280;68931;47.286;18.756;2023-05-19T01:32:19;101305.31;;;12.20;86.42
79463;BME280;68931;47.286;18.756;2023-05-19T01:32:54;101304.28;;;12.23;86.44
79463;BME280;68931;47.286;18.756;2023-05-19T01:33:29;101292.41;;;12.16;86.31
79463;BME280;68931;47.286;18.756;2023-05-19T01:34:01;101302.69;;;12.20;86.30
79463;BME280;68931;47.286;18.756;2023-05-19T01:34:41;101299.13;;;12.21;86.46
79463;BME280;68931;47.286;18.756;2023-05-19T01:35:15;101302.63;;;12.22;86.17
79463;BME280;68931;47.286;18.756;2023-05-19T01:35:47;101313.03;;;12.23;86.20
79463;BME280;68931;47.286;18.756;2023-05-19T01:36:21;101303.56;;;12.21;85.95
79463;BME280;68931;47.286;18.756;2023-05-19T01:36:54;101304.28;;;12.23;86.81
79463;BME280;68931;47.286;18.756;2023-05-19T01:37:26;101301.84;;;12.20;86.57
79463;BME280;68931;47.286;18.756;2023-05-19T01:37:58;101305.25;;;12.22;86.25
79463;BME280;68931;47.286;18.756;2023-05-19T01:38:31;101294.72;;;12.22;86.41
79463;BME280;68931;47.286;18.756;2023-05-19T01:39:03;101299.13;;;12.21;86.28
79463;BME280;68931;47.286;18.756;2023-05-19T01:39:34;101298.28;;;12.21;86.45
79463;BME280;68931;47.286;18.756;2023-05-19T01:40:06;101293.94;;;12.20;86.00
79463;BME280;68931;47.286;18.756;2023-05-19T01:40:40;101289.63;;;12.19;87.04
79463;BME280;68931;47.286;18.756;2023-05-19T01:41:12;101296.50;;;12.21;86.61
79463;BME280;68931;47.286;18.756;2023-05-19T01:41:44;101297.44;;;12.20;86.83
79463;BME280;68931;47.286;18.756;2023-05-19T01:42:19;101301.00;;;12.19;86.39
79463;BME280;68931;47.286;18.756;2023-05-19T01:42:52;101290.63;;;12.16;86.63
79463;BME280;68931;47.286;18.756;2023-05-19T01:43:25;101297.44;;;12.20;86.61
79463;BME280;68931;47.286;18.756;2023-05-19T01:43:56;101291.41;;;12.18;86.62
79463;BME280;68931;47.286;18.756;2023-05-19T01:44:28;101289.69;;;12.17;86.58
79463;BME280;68931;47.286;18.756;2023-05-19T01:44:59;101300.13;;;12.19;86.43
79463;BME280;68931;47.286;18.756;2023-05-19T01:45:32;101285.44;;;12.15;86.54
79463;BME280;68931;47.286;18.756;2023-05-19T01:46:04;101286.38;;;12.14;86.64
79463;BME280;68931;47.286;18.756;2023-05-19T01:46:36;101280.28;;;12.13;86.64
79463;BME280;68931;47.286;18.756;2023-05-19T01:47:08;101285.34;;;12.16;86.91
79463;BME280;68931;47.286;18.756;2023-05-19T01:47:42;101288.06;;;12.15;86.62
79463;BME280;68931;47.286;18.756;2023-05-19T01:48:13;101297.50;;;12.19;86.60
79463;BME280;68931;47.286;18.756;2023-05-19T01:48:47;101293.25;;;12.16;87.19
79463;BME280;68931;47.286;18.756;2023-05-19T01:49:18;101295.88;;;12.16;85.56
79463;BME280;68931;47.286;18.756;2023-05-19T01:49:49;101280.63;;;12.05;86.15
79463;BME280;68931;47.286;18.756;2023-05-19T01:50:20;101294.16;;;12.15;86.34
79463;BME280;68931;47.286;18.756;2023-05-19T01:50:51;101295.03;;;12.16;85.80
79463;BME280;68931;47.286;18.756;2023-05-19T01:51:24;101293.25;;;12.16;86.52
79463;BME280;68931;47.286;18.756;2023-05-19T01:51:55;101290.09;;;12.10;86.40
79463;BME280;68931;47.286;18.756;2023-05-19T01:52:26;101293.31;;;12.15;86.09
79463;BME280;68931;47.286;18.756;2023-05-19T01:52:56;101297.84;;;12.13;86.17
79463;BME280;68931;47.286;18.756;2023-05-19T01:53:27;101290.94;;;12.10;86.55
79463;BME280;68931;47.286;18.756;2023-05-19T01:54:01;101291.78;;;12.11;86.64
79463;BME280;68931;47.286;18.756;2023-05-19T01:54:31;101301.38;;;12.12;85.75
79463;BME280;68931;47.286;18.756;2023-05-19T01:55:03;101270.59;;;11.96;85.39
79463;BME280;68931;47.286;18.756;2023-05-19T01:56:37;101291.72;;;12.12;86.09
79463;BME280;68931;47.286;18.756;2023-05-19T01:58:43;101295.41;;;12.08;84.88
79463;BME280;68931;47.286;18.756;2023-05-19T01:59:31;101295.56;;;12.05;85.84
79463;BME280;68931;47.286;18.756;2023-05-19T02:00:53;101299.81;;;12.07;85.91
79463;BME280;68931;47.286;18.756;2023-05-19T02:01:51;101292.13;;;12.04;85.45
79463;BME280;68931;47.286;18.756;2023-05-19T02:04:12;101301.47;;;12.10;85.82
79463;BME280;68931;47.286;18.756;2023-05-19T02:04:50;101293.63;;;12.09;85.81
79463;BME280;68931;47.286;18.756;2023-05-19T02:05:36;101302.38;;;12.09;85.29
79463;BME280;68931;47.286;18.756;2023-05-19T02:06:48;101301.53;;;12.09;85.81
79463;BME280;68931;47.286;18.756;2023-05-19T02:07:37;101298.06;;;12.08;86.18
79463;BME280;68931;47.286;18.756;2023-05-19T02:08:23;101298.91;;;12.09;86.03
79463;BME280;68931;47.286;18.756;2023-05-19T02:09:14;101306.00;;;12.06;85.52
79463;BME280;68931;47.286;18.756;2023-05-19T02:10:05;101302.53;;;12.06;85.76
79463;BME280;68931;47.286;18.756;2023-05-19T02:10:43;101294.63;;;12.06;85.90
79463;BME280;68931;47.286;18.756;2023-05-19T02:12:23;101297.38;;;12.04;86.11
79463;BME280;68931;47.286;18.756;2023-05-19T02:13:00;101295.41;;;12.08;86.10
79463;BME280;68931;47.286;18.756;2023-05-19T02:13:36;101290.31;;;12.05;86.51
79463;BME280;68931;47.286;18.756;2023-05-19T02:15:06;101299.16;;;12.04;85.75
79463;BME280;68931;47.286;18.756;2023-05-19T02:15:41;101294.75;;;12.04;86.12
79463;BME280;68931;47.286;18.756;2023-05-19T02:16:14;101293.19;;;12.00;86.12
79463;BME280;68931;47.286;18.756;2023-05-19T02:16:47;101293.09;;;12.02;85.89
79463;BME280;68931;47.286;18.756;2023-05-19T02:17:19;101299.91;;;12.06;85.68
79463;BME280;68931;47.286;18.756;2023-05-19T02:17:52;101292.13;;;12.04;86.28
79463;BME280;68931;47.286;18.756;2023-05-19T02:18:25;101293.72;;;12.07;86.41
79463;BME280;68931;47.286;18.756;2023-05-19T02:18:59;101300.59;;;12.10;85.99
79463;BME280;68931;47.286;18.756;2023-05-19T02:19:35;101292.72;;;12.10;86.00
79463;BME280;68931;47.286;18.756;2023-05-19T02:20:07;101297.19;;;12.07;86.74
79463;BME280;68931;47.286;18.756;2023-05-19T02:20:41;101297.13;;;12.09;86.82
79463;BME280;68931;47.286;18.756;2023-05-19T02:21:11;101296.28;;;12.09;87.01
79463;BME280;68931;47.286;18.756;2023-05-19T02:21:42;101295.34;;;12.10;87.21
79463;BME280;68931;47.286;18.756;2023-05-19T02:22:13;101288.44;;;12.07;87.72
79463;BME280;68931;47.286;18.756;2023-05-19T02:22:44;101297.19;;;12.07;86.64
79463;BME280;68931;47.286;18.756;2023-05-19T02:23:15;101293.63;;;12.09;86.43
79463;BME280;68931;47.286;18.756;2023-05-19T02:23:47;101298.84;;;12.10;86.22
79463;BME280;68931;47.286;18.756;2023-05-19T02:24:21;101289.38;;;12.06;85.94
79463;BME280;68931;47.286;18.756;2023-05-19T02:24:52;101288.69;;;12.02;86.06
79463;BME280;68931;47.286;18.756;2023-05-19T02:25:22;101286.94;;;12.03;86.01
79463;BME280;68931;47.286;18.756;2023-05-19T02:25:53;101297.19;;;12.07;86.23
79463;BME280;68931;47.286;18.756;2023-05-19T02:26:24;101300.53;;;12.11;86.24
79463;BME280;68931;47.286;18.756;2023-05-19T02:26:55;101293.56;;;12.10;86.54
79463;BME280;68931;47.286;18.756;2023-05-19T02:27:26;101297.06;;;12.11;86.65
79463;BME280;68931;47.286;18.756;2023-05-19T02:27:57;101300.53;;;12.11;87.07
79463;BME280;68931;47.286;18.756;2023-05-19T02:28:28;101295.28;;;12.11;87.04
79463;BME280;68931;47.286;18.756;2023-05-19T02:28:59;101299.75;;;12.09;86.89
79463;BME280;68931;47.286;18.756;2023-05-19T02:29:30;101298.91;;;12.09;86.44
79463;BME280;68931;47.286;18.756;2023-05-19T02:30:01;101287.84;;;12.02;86.23
79463;BME280;68931;47.286;18.756;2023-05-19T02:30:32;101294.63;;;12.06;86.20
79463;BME280;68931;47.286;18.756;2023-05-19T02:31:02;101289.56;;;12.03;86.54
79463;BME280;68931;47.286;18.756;2023-05-19T02:31:35;101294.56;;;12.07;86.03
79463;BME280;68931;47.286;18.756;2023-05-19T02:32:06;101297.19;;;12.07;86.27
79463;BME280;68931;47.286;18.756;2023-05-19T02:32:37;101260.31;;;11.92;86.36
79463;BME280;68931;47.286;18.756;2023-05-19T02:33:08;101290.22;;;12.06;86.45
79463;BME280;68931;47.286;18.756;2023-05-19T02:33:40;101293.50;;;12.12;86.55
79463;BME280;68931;47.286;18.756;2023-05-19T02:34:12;101289.16;;;12.11;87.05
79463;BME280;68931;47.286;18.756;2023-05-19T02:34:46;101300.53;;;12.11;86.87
79463;BME280;68931;47.286;18.756;2023-05-19T02:35:16;101301.47;;;12.10;87.31
79463;BME280;68931;47.286;18.756;2023-05-19T02:35:47;101296.19;;;12.10;87.40
79463;BME280;68931;47.286;18.756;2023-05-19T02:36:24;101265.66;;;11.90;87.46
79463;BME280;68931;47.286;18.756;2023-05-19T02:36:55;101289.22;;;12.09;87.52
79463;BME280;68931;47.286;18.756;2023-05-19T02:37:27;101275.84;;;11.96;87.41
79463;BME280;68931;47.286;18.756;2023-05-19T02:37:58;101290.22;;;12.06;88.04
79463;BME280;68931;47.286;18.756;2023-05-19T02:38:29;101298.59;;;12.15;88.07
79463;BME280;68931;47.286;18.756;2023-05-19T02:39:05;101299.44;;;12.15;88.46
79463;BME280;68931;47.286;18.756;2023-05-19T02:39:36;101300.28;;;12.16;88.31
79463;BME280;68931;47.286;18.756;2023-05-19T02:40:07;101296.72;;;12.17;88.21
79463;BME280;68931;47.286;18.756;2023-05-19T02:40:38;101294.28;;;12.14;88.10
79463;BME280;68931;47.286;18.756;2023-05-19T02:41:08;101295.19;;;12.13;88.51
79463;BME280;68931;47.286;18.756;2023-05-19T02:41:40;101293.25;;;12.16;88.63
79463;BME280;68931;47.286;18.756;2023-05-19T02:42:10;101297.66;;;12.16;88.34
79463;BME280;68931;47.286;18.756;2023-05-19T02:42:41;101295.81;;;12.18;88.57
79463;BME280;68931;47.286;18.756;2023-05-19T02:43:12;101294.03;;;12.18;88.54
79463;BME280;68931;47.286;18.756;2023-05-19T02:43:42;101288.31;;;12.10;89.06
79463;BME280;68931;47.286;18.756;2023-05-19T02:44:14;101293.25;;;12.16;89.57
79463;BME280;68931;47.286;18.756;2023-05-19T02:44:44;101285.75;;;12.09;88.89
79463;BME280;68931;47.286;18.756;2023-05-19T02:45:15;101294.16;;;12.15;89.34
79463;BME280;68931;47.286;18.756;2023-05-19T02:45:46;101300.28;;;12.16;89.33
79463;BME280;68931;47.286;18.756;2023-05-19T02:46:16;101303.78;;;12.16;89.87
79463;BME280;68931;47.286;18.756;2023-05-19T02:46:47;101292.41;;;12.16;89.63
79463;BME280;68931;47.286;18.756;2023-05-19T02:47:18;101302.06;;;12.15;89.51
79463;BME280;68931;47.286;18.756;2023-05-19T02:47:48;101297.72;;;12.14;89.29
79463;BME280;68931;47.286;18.756;2023-05-19T02:48:19;101289.75;;;12.16;89.21
79463;BME280;68931;47.286;18.756;2023-05-19T02:48:52;101290.63;;;12.16;89.17
79463;BME280;68931;47.286;18.756;2023-05-19T02:49:23;101296.81;;;12.15;89.29
79463;BME280;68931;47.286;18.756;2023-05-19T02:49:54;101290.69;;;12.15;89.37
79463;BME280;68931;47.286;18.756;2023-05-19T02:50:24;101288.38;;;12.09;89.46
79463;BME280;68931;47.286;18.756;2023-05-19T02:50:55;101289.16;;;12.11;89.98
79463;BME280;68931;47.286;18.756;2023-05-19T02:51:26;101303.16;;;12.11;89.95
79463;BME280;68931;47.286;18.756;2023-05-19T02:51:56;101304.09;;;12.10;89.96
79463;BME280;68931;47.286;18.756;2023-05-19T02:52:27;101288.69;;;12.02;89.67
79463;BME280;68931;47.286;18.756;2023-05-19T02:52:58;101297.13;;;12.09;89.57
79463;BME280;68931;47.286;18.756;2023-05-19T02:53:30;101301.53;;;12.09;89.46
79463;BME280;68931;47.286;18.756;2023-05-19T02:54:01;101277.88;;;11.91;89.29
79463;BME280;68931;47.286;18.756;2023-05-19T02:54:33;101304.31;;;12.05;89.26
79463;BME280;68931;47.286;18.756;2023-05-19T02:55:04;101306.94;;;12.05;89.49
79463;BME280;68931;47.286;18.756;2023-05-19T02:55:35;101301.94;;;12.01;89.47
79463;BME280;68931;47.286;18.756;2023-05-19T02:56:06;101298.50;;;11.99;89.85
79463;BME280;68931;47.286;18.756;2023-05-19T02:56:43;101304.47;;;12.02;89.67
79463;BME280;68931;47.286;18.756;2023-05-19T02:57:13;101301.06;;;12.00;89.88
79463;BME280;68931;47.286;18.756;2023-05-19T02:57:45;101276.41;;;11.86;89.74
79463;BME280;68931;47.286;18.756;2023-05-19T02:58:15;101301.06;;;12.00;90.26
79463;BME280;68931;47.286;18.756;2023-05-19T02:58:46;101282.66;;;11.83;89.88
79463;BME280;68931;47.286;18.756;2023-05-19T02:59:17;101305.72;;;11.95;90.35
79463;BME280;68931;47.286;18.756;2023-05-19T02:59:53;101297.91;;;11.94;90.46
79463;BME280;68931;47.286;18.756;2023-05-19T03:00:24;101308.19;;;11.98;89.92
79463;BME280;68931;47.286;18.756;2023-05-19T03:00:55;101302.91;;;11.98;90.26
79463;BME280;68931;47.286;18.756;2023-05-19T03:01:31;101308.97;;;12.00;89.66
79463;BME280;68931;47.286;18.756;2023-05-19T03:02:02;101292.88;;;11.89;89.65
79463;BME280;68931;47.286;18.756;2023-05-19T03:02:32;101297.13;;;11.92;89.77
79463;BME280;68931;47.286;18.756;2023-05-19T03:03:03;101311.66;;;11.99;89.82
79463;BME280;68931;47.286;18.756;2023-05-19T03:03:34;101313.44;;;11.98;89.74
79463;BME280;68931;47.286;18.756;2023-05-19T03:04:04;101289.31;;;11.90;90.14
79463;BME280;68931;47.286;18.756;2023-05-19T03:04:35;101307.25;;;11.99;90.13
79463;BME280;68931;47.286;18.756;2023-05-19T03:05:10;101308.19;;;11.98;90.29